sensor_id;sensor_type;location;lat;lon;timestamp;temperature;humidity
3356;DHT22;1691;52.486;13.374;2023-09-08T00:00:21;19.50;81.30
3356;DHT22;1691;52.486;13.374;2023-09-08T00:02:48;19.50;81.50
3356;DHT22;1691;52.486;13.374;2023-09-08T00:05:15;19.50;81.70
3356;DHT22;1691;52.486;13.374;2023-09-08T00:07:42;19.40;81.90
3356;DHT22;1691;52.486;13.374;2023-09-08T00:10:09;19.40;82.10
3356;DHT22;1691;52.486;13.374;2023-09-08T00:12:38;19.40;82.30
3356;DHT22;1691;52.486;13.374;2023-09-08T00:15:06;19.40;82.40
3356;DHT22;1691;52.486;13.374;2023-09-08T00:17:34;19.30;82.60
3356;DHT22;1691;52.486;13.374;2023-09-08T00:20:05;19.30;82.80
3356;DHT22;1691;52.486;13.374;2023-09-08T00:22:37;19.30;82.80
3356;DHT22;1691;52.486;13.374;2023-09-08T00:25:05;19.30;82.80
3356;DHT22;1691;52.486;13.374;2023-09-08T00:27:33;19.30;83.00
3356;DHT22;1691;52.486;13.374;2023-09-08T00:30:00;19.20;83.20
3356;DHT22;1691;52.486;13.374;2023-09-08T00:32:29;19.20;83.40
3356;DHT22;1691;52.486;13.374;2023-09-08T00:34:56;19.20;83.40
3356;DHT22;1691;52.486;13.374;2023-09-08T00:37:23;19.10;83.60
3356;DHT22;1691;52.486;13.374;2023-09-08T00:39:50;19.10;83.60
3356;DHT22;1691;52.486;13.374;2023-09-08T00:42:17;19.10;83.80
3356;DHT22;1691;52.486;13.374;2023-09-08T00:44:44;19.10;83.80
3356;DHT22;1691;52.486;13.374;2023-09-08T00:47:11;19.10;83.80
3356;DHT22;1691;52.486;13.374;2023-09-08T00:49:38;19.00;83.90
3356;DHT22;1691;52.486;13.374;2023-09-08T00:52:06;19.10;83.90
3356;DHT22;1691;52.486;13.374;2023-09-08T00:54:33;19.00;84.10
3356;DHT22;1691;52.486;13.374;2023-09-08T00:57:01;19.00;84.30
3356;DHT22;1691;52.486;13.374;2023-09-08T00:59:32;19.00;84.50
3356;DHT22;1691;52.486;13.374;2023-09-08T01:02:00;18.90;84.50
3356;DHT22;1691;52.486;13.374;2023-09-08T01:04:28;18.90;84.70
3356;DHT22;1691;52.486;13.374;2023-09-08T01:06:56;18.90;84.90
3356;DHT22;1691;52.486;13.374;2023-09-08T01:09:25;18.90;85.10
3356;DHT22;1691;52.486;13.374;2023-09-08T01:11:52;18.80;85.20
3356;DHT22;1691;52.486;13.374;2023-09-08T01:14:22;18.80;85.40
3356;DHT22;1691;52.486;13.374;2023-09-08T01:16:49;18.70;85.60
3356;DHT22;1691;52.486;13.374;2023-09-08T01:19:16;18.70;86.00
3356;DHT22;1691;52.486;13.374;2023-09-08T01:21:58;18.70;86.00
3356;DHT22;1691;52.486;13.374;2023-09-08T01:25:30;18.70;86.20
3356;DHT22;1691;52.486;13.374;2023-09-08T01:27:34;18.60;86.40
3356;DHT22;1691;52.486;13.374;2023-09-08T01:30:03;18.60;86.50
3356;DHT22;1691;52.486;13.374;2023-09-08T01:32:32;18.60;86.70
3356;DHT22;1691;52.486;13.374;2023-09-08T01:35:00;18.50;86.70
3356;DHT22;1691;52.486;13.374;2023-09-08T01:37:27;18.50;86.70
3356;DHT22;1691;52.486;13.374;2023-09-08T01:39:54;18.50;86.90
3356;DHT22;1691;52.486;13.374;2023-09-08T01:42:21;18.50;87.30
3356;DHT22;1691;52.486;13.374;2023-09-08T01:44:49;18.50;87.50
3356;DHT22;1691;52.486;13.374;2023-09-08T01:47:16;18.40;87.50
3356;DHT22;1691;52.486;13.374;2023-09-08T01:49:43;18.40;87.70
3356;DHT22;1691;52.486;13.374;2023-09-08T01:52:10;18.40;87.70
3356;DHT22;1691;52.486;13.374;2023-09-08T01:54:37;18.40;87.90
3356;DHT22;1691;52.486;13.374;2023-09-08T01:57:04;18.30;88.00
3356;DHT22;1691;52.486;13.374;2023-09-08T01:59:31;18.30;88.20
3356;DHT22;1691;52.486;13.374;2023-09-08T02:01:58;18.30;88.40
3356;DHT22;1691;52.486;13.374;2023-09-08T02:04:25;18.20;88.40
3356;DHT22;1691;52.486;13.374;2023-09-08T02:06:52;18.20;88.60
3356;DHT22;1691;52.486;13.374;2023-09-08T02:09:19;18.20;88.80
3356;DHT22;1691;52.486;13.374;2023-09-08T02:11:46;18.20;88.80
3356;DHT22;1691;52.486;13.374;2023-09-08T02:14:13;18.20;89.00
3356;DHT22;1691;52.486;13.374;2023-09-08T02:16:40;18.20;89.00
3356;DHT22;1691;52.486;13.374;2023-09-08T02:19:07;18.10;89.20
3356;DHT22;1691;52.486;13.374;2023-09-08T02:21:35;18.10;89.20
3356;DHT22;1691;52.486;13.374;2023-09-08T02:24:02;18.10;89.20
3356;DHT22;1691;52.486;13.374;2023-09-08T02:26:29;18.10;89.30
3356;DHT22;1691;52.486;13.374;2023-09-08T02:28:59;18.10;89.30
3356;DHT22;1691;52.486;13.374;2023-09-08T02:31:27;18.10;89.30
3356;DHT22;1691;52.486;13.374;2023-09-08T02:33:54;18.10;89.50
3356;DHT22;1691;52.486;13.374;2023-09-08T02:36:22;18.10;89.70
3356;DHT22;1691;52.486;13.374;2023-09-08T02:38:53;18.00;89.70
3356;DHT22;1691;52.486;13.374;2023-09-08T02:41:21;18.00;89.70
3356;DHT22;1691;52.486;13.374;2023-09-08T02:43:49;18.00;89.70
3356;DHT22;1691;52.486;13.374;2023-09-08T02:46:16;17.90;89.90
3356;DHT22;1691;52.486;13.374;2023-09-08T02:48:43;17.90;90.10
3356;DHT22;1691;52.486;13.374;2023-09-08T02:51:10;17.90;90.10
3356;DHT22;1691;52.486;13.374;2023-09-08T02:53:38;17.90;90.20
3356;DHT22;1691;52.486;13.374;2023-09-08T02:56:05;17.90;90.20
3356;DHT22;1691;52.486;13.374;2023-09-08T02:58:32;17.80;90.30
3356;DHT22;1691;52.486;13.374;2023-09-08T03:01:13;17.80;90.40
3356;DHT22;1691;52.486;13.374;2023-09-08T03:03:42;17.80;90.50
3356;DHT22;1691;52.486;13.374;2023-09-08T03:06:11;17.70;90.60
3356;DHT22;1691;52.486;13.374;2023-09-08T03:08:39;17.70;90.70
3356;DHT22;1691;52.486;13.374;2023-09-08T03:11:08;17.70;90.70
3356;DHT22;1691;52.486;13.374;2023-09-08T03:13:35;17.60;90.70
3356;DHT22;1691;52.486;13.374;2023-09-08T03:16:07;17.60;90.80
3356;DHT22;1691;52.486;13.374;2023-09-08T03:18:35;17.50;90.90
3356;DHT22;1691;52.486;13.374;2023-09-08T03:21:04;17.50;91.00
3356;DHT22;1691;52.486;13.374;2023-09-08T03:23:39;17.50;91.00
3356;DHT22;1691;52.486;13.374;2023-09-08T03:26:08;17.40;91.20
3356;DHT22;1691;52.486;13.374;2023-09-08T03:28:37;17.40;91.30
3356;DHT22;1691;52.486;13.374;2023-09-08T03:31:05;17.30;91.50
3356;DHT22;1691;52.486;13.374;2023-09-08T03:33:33;17.30;91.60
3356;DHT22;1691;52.486;13.374;2023-09-08T03:36:00;17.30;91.80
3356;DHT22;1691;52.486;13.374;2023-09-08T03:38:28;17.20;91.90
3356;DHT22;1691;52.486;13.374;2023-09-08T03:40:54;17.20;92.00
3356;DHT22;1691;52.486;13.374;2023-09-08T03:43:21;17.20;92.10
3356;DHT22;1691;52.486;13.374;2023-09-08T03:45:48;17.30;92.10
3356;DHT22;1691;52.486;13.374;2023-09-08T03:48:16;17.20;92.10
3356;DHT22;1691;52.486;13.374;2023-09-08T03:50:43;17.20;92.20
3356;DHT22;1691;52.486;13.374;2023-09-08T03:53:12;17.20;92.20
3356;DHT22;1691;52.486;13.374;2023-09-08T03:55:39;17.20;92.30
3356;DHT22;1691;52.486;13.374;2023-09-08T03:58:06;17.20;92.30
3356;DHT22;1691;52.486;13.374;2023-09-08T04:00:34;17.20;92.30
3356;DHT22;1691;52.486;13.374;2023-09-08T04:03:02;17.20;92.40
3356;DHT22;1691;52.486;13.374;2023-09-08T04:05:29;17.20;92.50
3356;DHT22;1691;52.486;13.374;2023-09-08T04:07:56;17.10;92.50
3356;DHT22;1691;52.486;13.374;2023-09-08T04:10:24;17.10;92.50
3356;DHT22;1691;52.486;13.374;2023-09-08T04:12:51;17.10;92.60
3356;DHT22;1691;52.486;13.374;2023-09-08T04:15:18;17.10;92.60
3356;DHT22;1691;52.486;13.374;2023-09-08T04:17:45;17.10;92.70
3356;DHT22;1691;52.486;13.374;2023-09-08T04:20:12;17.00;92.80
3356;DHT22;1691;52.486;13.374;2023-09-08T04:22:41;17.00;92.90
3356;DHT22;1691;52.486;13.374;2023-09-08T04:25:09;17.00;92.90
3356;DHT22;1691;52.486;13.374;2023-09-08T04:27:37;16.90;93.00
3356;DHT22;1691;52.486;13.374;2023-09-08T04:30:05;16.90;93.00
3356;DHT22;1691;52.486;13.374;2023-09-08T04:32:33;16.90;93.10
3356;DHT22;1691;52.486;13.374;2023-09-08T04:35:00;16.90;93.20
3356;DHT22;1691;52.486;13.374;2023-09-08T04:37:27;16.90;93.30
3356;DHT22;1691;52.486;13.374;2023-09-08T04:39:54;16.90;93.40
3356;DHT22;1691;52.486;13.374;2023-09-08T04:42:21;16.90;93.40
3356;DHT22;1691;52.486;13.374;2023-09-08T04:44:48;16.90;93.50
3356;DHT22;1691;52.486;13.374;2023-09-08T04:47:15;16.90;93.50
3356;DHT22;1691;52.486;13.374;2023-09-08T04:49:42;16.90;93.60
3356;DHT22;1691;52.486;13.374;2023-09-08T04:52:11;16.90;93.60
3356;DHT22;1691;52.486;13.374;2023-09-08T04:54:38;16.90;93.60
3356;DHT22;1691;52.486;13.374;2023-09-08T04:57:06;16.90;93.60
3356;DHT22;1691;52.486;13.374;2023-09-08T04:59:49;16.90;93.60
3356;DHT22;1691;52.486;13.374;2023-09-08T05:02:16;16.90;93.60
3356;DHT22;1691;52.486;13.374;2023-09-08T05:04:45;16.90;93.60
3356;DHT22;1691;52.486;13.374;2023-09-08T05:07:12;16.90;93.60
3356;DHT22;1691;52.486;13.374;2023-09-08T05:09:40;17.00;93.60
3356;DHT22;1691;52.486;13.374;2023-09-08T05:12:07;17.00;93.60
3356;DHT22;1691;52.486;13.374;2023-09-08T05:14:34;17.10;93.60
3356;DHT22;1691;52.486;13.374;2023-09-08T05:17:01;17.20;93.60
3356;DHT22;1691;52.486;13.374;2023-09-08T05:19:29;17.50;93.80
3356;DHT22;1691;52.486;13.374;2023-09-08T05:21:56;18.00;93.60
3356;DHT22;1691;52.486;13.374;2023-09-08T05:24:23;18.60;92.80
3356;DHT22;1691;52.486;13.374;2023-09-08T05:26:52;19.30;91.80
3356;DHT22;1691;52.486;13.374;2023-09-08T05:29:19;19.90;90.40
3356;DHT22;1691;52.486;13.374;2023-09-08T05:31:46;20.40;88.80
3356;DHT22;1691;52.486;13.374;2023-09-08T05:34:13;20.80;86.50
3356;DHT22;1691;52.486;13.374;2023-09-08T05:36:41;21.20;84.70
3356;DHT22;1691;52.486;13.374;2023-09-08T05:39:09;21.60;83.00
3356;DHT22;1691;52.486;13.374;2023-09-08T05:41:37;22.00;81.00
3356;DHT22;1691;52.486;13.374;2023-09-08T05:44:04;22.40;79.10
3356;DHT22;1691;52.486;13.374;2023-09-08T05:46:31;22.80;77.00
3356;DHT22;1691;52.486;13.374;2023-09-08T05:48:59;23.10;75.40
3356;DHT22;1691;52.486;13.374;2023-09-08T05:51:26;23.40;73.90
3356;DHT22;1691;52.486;13.374;2023-09-08T05:53:53;23.60;72.40
3356;DHT22;1691;52.486;13.374;2023-09-08T05:56:20;24.00;71.10
3356;DHT22;1691;52.486;13.374;2023-09-08T05:58:47;24.30;69.20
3356;DHT22;1691;52.486;13.374;2023-09-08T06:01:15;24.50;68.10
3356;DHT22;1691;52.486;13.374;2023-09-08T06:03:45;24.70;66.60
3356;DHT22;1691;52.486;13.374;2023-09-08T06:06:12;24.80;65.90
3356;DHT22;1691;52.486;13.374;2023-09-08T06:08:39;25.00;65.10
3356;DHT22;1691;52.486;13.374;2023-09-08T06:11:06;25.40;64.00
3356;DHT22;1691;52.486;13.374;2023-09-08T06:13:33;25.60;62.70
3356;DHT22;1691;52.486;13.374;2023-09-08T06:16:00;25.90;61.80
3356;DHT22;1691;52.486;13.374;2023-09-08T06:18:28;26.30;60.30
3356;DHT22;1691;52.486;13.374;2023-09-08T06:20:57;26.70;59.20
3356;DHT22;1691;52.486;13.374;2023-09-08T06:23:24;27.00;58.40
3356;DHT22;1691;52.486;13.374;2023-09-08T06:25:56;27.30;57.30
3356;DHT22;1691;52.486;13.374;2023-09-08T06:28:29;27.80;55.90
3356;DHT22;1691;52.486;13.374;2023-09-08T06:30:57;28.10;54.90
3356;DHT22;1691;52.486;13.374;2023-09-08T06:33:24;28.40;54.10
3356;DHT22;1691;52.486;13.374;2023-09-08T06:35:51;28.60;53.30
3356;DHT22;1691;52.486;13.374;2023-09-08T06:38:20;28.80;52.40
3356;DHT22;1691;52.486;13.374;2023-09-08T06:40:47;29.10;51.50
3356;DHT22;1691;52.486;13.374;2023-09-08T06:43:14;29.20;50.70
3356;DHT22;1691;52.486;13.374;2023-09-08T06:45:41;29.20;50.40
3356;DHT22;1691;52.486;13.374;2023-09-08T06:48:09;29.30;50.10
3356;DHT22;1691;52.486;13.374;2023-09-08T06:50:36;29.40;49.90
3356;DHT22;1691;52.486;13.374;2023-09-08T06:53:03;29.60;49.00
3356;DHT22;1691;52.486;13.374;2023-09-08T06:55:30;29.70;48.70
3356;DHT22;1691;52.486;13.374;2023-09-08T06:57:57;29.70;48.20
3356;DHT22;1691;52.486;13.374;2023-09-08T07:00:25;29.70;48.10
3356;DHT22;1691;52.486;13.374;2023-09-08T07:02:52;29.80;47.80
3356;DHT22;1691;52.486;13.374;2023-09-08T07:05:19;29.90;47.50
3356;DHT22;1691;52.486;13.374;2023-09-08T07:07:46;30.30;47.00
3356;DHT22;1691;52.486;13.374;2023-09-08T07:10:16;30.80;45.80
3356;DHT22;1691;52.486;13.374;2023-09-08T07:12:43;31.10;44.70
3356;DHT22;1691;52.486;13.374;2023-09-08T07:15:10;31.10;44.40
3356;DHT22;1691;52.486;13.374;2023-09-08T07:17:38;31.30;44.10
3356;DHT22;1691;52.486;13.374;2023-09-08T07:20:05;31.60;43.60
3356;DHT22;1691;52.486;13.374;2023-09-08T07:22:32;31.90;42.90
3356;DHT22;1691;52.486;13.374;2023-09-08T07:24:59;32.30;42.10
3356;DHT22;1691;52.486;13.374;2023-09-08T07:27:26;32.40;41.80
3356;DHT22;1691;52.486;13.374;2023-09-08T07:29:53;32.60;41.20
3356;DHT22;1691;52.486;13.374;2023-09-08T07:32:20;32.70;40.70
3356;DHT22;1691;52.486;13.374;2023-09-08T07:34:48;32.90;40.20
3356;DHT22;1691;52.486;13.374;2023-09-08T07:37:22;33.40;39.80
3356;DHT22;1691;52.486;13.374;2023-09-08T07:39:50;33.90;38.70
3356;DHT22;1691;52.486;13.374;2023-09-08T07:42:18;34.20;37.90
3356;DHT22;1691;52.486;13.374;2023-09-08T07:44:45;34.30;37.50
3356;DHT22;1691;52.486;13.374;2023-09-08T07:47:12;34.40;37.20
3356;DHT22;1691;52.486;13.374;2023-09-08T07:49:39;34.20;37.00
3356;DHT22;1691;52.486;13.374;2023-09-08T07:52:11;34.40;37.00
3356;DHT22;1691;52.486;13.374;2023-09-08T07:54:38;35.00;36.10
3356;DHT22;1691;52.486;13.374;2023-09-08T07:57:05;35.40;35.20
3356;DHT22;1691;52.486;13.374;2023-09-08T07:59:32;35.60;34.70
3356;DHT22;1691;52.486;13.374;2023-09-08T08:02:02;35.80;34.10
3356;DHT22;1691;52.486;13.374;2023-09-08T08:04:29;35.80;33.80
3356;DHT22;1691;52.486;13.374;2023-09-08T08:06:56;35.80;33.60
3356;DHT22;1691;52.486;13.374;2023-09-08T08:09:23;36.10;33.00
3356;DHT22;1691;52.486;13.374;2023-09-08T08:11:50;36.30;32.50
3356;DHT22;1691;52.486;13.374;2023-09-08T08:14:18;36.60;32.10
3356;DHT22;1691;52.486;13.374;2023-09-08T08:16:45;37.00;31.50
3356;DHT22;1691;52.486;13.374;2023-09-08T08:19:12;37.20;31.00
3356;DHT22;1691;52.486;13.374;2023-09-08T08:21:39;37.40;30.70
3356;DHT22;1691;52.486;13.374;2023-09-08T08:24:09;37.60;30.20
3356;DHT22;1691;52.486;13.374;2023-09-08T08:26:37;37.60;29.80
3356;DHT22;1691;52.486;13.374;2023-09-08T08:29:04;37.40;29.90
3356;DHT22;1691;52.486;13.374;2023-09-08T08:31:31;37.30;29.80
3356;DHT22;1691;52.486;13.374;2023-09-08T08:33:59;37.30;29.80
3356;DHT22;1691;52.486;13.374;2023-09-08T08:36:27;37.30;29.70
3356;DHT22;1691;52.486;13.374;2023-09-08T08:38:54;37.30;29.60
3356;DHT22;1691;52.486;13.374;2023-09-08T08:41:21;37.30;29.50
3356;DHT22;1691;52.486;13.374;2023-09-08T08:43:48;37.30;29.60
3356;DHT22;1691;52.486;13.374;2023-09-08T08:46:17;37.50;29.50
3356;DHT22;1691;52.486;13.374;2023-09-08T08:48:45;37.50;29.20
3356;DHT22;1691;52.486;13.374;2023-09-08T08:51:13;37.20;29.30
3356;DHT22;1691;52.486;13.374;2023-09-08T08:53:42;37.10;29.30
3356;DHT22;1691;52.486;13.374;2023-09-08T08:56:10;37.10;29.30
3356;DHT22;1691;52.486;13.374;2023-09-08T08:58:39;37.20;29.20
3356;DHT22;1691;52.486;13.374;2023-09-08T09:01:07;37.40;29.00
3356;DHT22;1691;52.486;13.374;2023-09-08T09:03:35;37.50;28.90
3356;DHT22;1691;52.486;13.374;2023-09-08T09:06:04;37.20;28.90
3356;DHT22;1691;52.486;13.374;2023-09-08T09:08:32;37.00;29.20
3356;DHT22;1691;52.486;13.374;2023-09-08T09:11:00;36.90;29.40
3356;DHT22;1691;52.486;13.374;2023-09-08T09:13:27;36.90;29.50
3356;DHT22;1691;52.486;13.374;2023-09-08T09:15:59;36.90;29.40
3356;DHT22;1691;52.486;13.374;2023-09-08T09:18:27;37.20;29.10
3356;DHT22;1691;52.486;13.374;2023-09-08T09:20:59;37.10;29.10
3356;DHT22;1691;52.486;13.374;2023-09-08T09:23:32;37.00;29.10
3356;DHT22;1691;52.486;13.374;2023-09-08T09:26:01;37.00;29.10
3356;DHT22;1691;52.486;13.374;2023-09-08T09:28:32;37.10;29.00
3356;DHT22;1691;52.486;13.374;2023-09-08T09:31:00;37.30;28.90
3356;DHT22;1691;52.486;13.374;2023-09-08T09:33:28;37.30;28.70
3356;DHT22;1691;52.486;13.374;2023-09-08T09:35:55;37.20;28.80
3356;DHT22;1691;52.486;13.374;2023-09-08T09:38:26;37.10;29.00
3356;DHT22;1691;52.486;13.374;2023-09-08T09:40:54;37.20;28.90
3356;DHT22;1691;52.486;13.374;2023-09-08T09:43:22;37.30;28.90
3356;DHT22;1691;52.486;13.374;2023-09-08T09:45:50;37.30;28.80
3356;DHT22;1691;52.486;13.374;2023-09-08T09:48:19;37.00;29.00
3356;DHT22;1691;52.486;13.374;2023-09-08T09:50:48;36.70;29.20
3356;DHT22;1691;52.486;13.374;2023-09-08T09:53:16;36.60;29.40
3356;DHT22;1691;52.486;13.374;2023-09-08T09:55:44;36.80;29.30
3356;DHT22;1691;52.486;13.374;2023-09-08T09:58:12;36.60;29.40
3356;DHT22;1691;52.486;13.374;2023-09-08T10:00:41;36.50;29.50
3356;DHT22;1691;52.486;13.374;2023-09-08T10:03:14;36.50;29.60
3356;DHT22;1691;52.486;13.374;2023-09-08T10:05:41;36.40;29.60
3356;DHT22;1691;52.486;13.374;2023-09-08T10:08:08;36.20;29.80
3356;DHT22;1691;52.486;13.374;2023-09-08T10:10:36;36.00;29.90
3356;DHT22;1691;52.486;13.374;2023-09-08T10:13:06;35.90;30.20
3356;DHT22;1691;52.486;13.374;2023-09-08T10:15:34;35.70;30.40
3356;DHT22;1691;52.486;13.374;2023-09-08T10:18:04;35.70;30.40
3356;DHT22;1691;52.486;13.374;2023-09-08T10:20:33;35.60;30.50
3356;DHT22;1691;52.486;13.374;2023-09-08T10:25:31;35.10;30.90
3356;DHT22;1691;52.486;13.374;2023-09-08T10:28:02;34.70;31.50
3356;DHT22;1691;52.486;13.374;2023-09-08T10:30:31;34.50;32.10
3356;DHT22;1691;52.486;13.374;2023-09-08T10:32:59;34.30;32.40
3356;DHT22;1691;52.486;13.374;2023-09-08T10:35:28;34.30;32.40
3356;DHT22;1691;52.486;13.374;2023-09-08T10:38:27;34.30;32.20
3356;DHT22;1691;52.486;13.374;2023-09-08T10:43:44;34.30;32.20
3356;DHT22;1691;52.486;13.374;2023-09-08T10:46:32;34.30;32.20
3356;DHT22;1691;52.486;13.374;2023-09-08T10:49:04;34.10;32.50
3356;DHT22;1691;52.486;13.374;2023-09-08T10:51:35;34.20;32.50
3356;DHT22;1691;52.486;13.374;2023-09-08T10:54:02;34.30;32.40
3356;DHT22;1691;52.486;13.374;2023-09-08T10:56:56;34.30;32.40
3356;DHT22;1691;52.486;13.374;2023-09-08T10:59:34;34.30;32.40
3356;DHT22;1691;52.486;13.374;2023-09-08T11:02:04;34.30;32.40
3356;DHT22;1691;52.486;13.374;2023-09-08T11:04:31;34.30;32.40
3356;DHT22;1691;52.486;13.374;2023-09-08T11:07:02;34.20;32.50
3356;DHT22;1691;52.486;13.374;2023-09-08T11:09:35;33.80;33.00
3356;DHT22;1691;52.486;13.374;2023-09-08T11:12:04;33.50;33.50
3356;DHT22;1691;52.486;13.374;2023-09-08T11:14:32;33.30;33.60
3356;DHT22;1691;52.486;13.374;2023-09-08T11:17:02;33.00;33.90
3356;DHT22;1691;52.486;13.374;2023-09-08T11:19:46;32.60;34.70
3356;DHT22;1691;52.486;13.374;2023-09-08T11:22:16;32.20;35.30
3356;DHT22;1691;52.486;13.374;2023-09-08T11:24:44;31.70;35.90
3356;DHT22;1691;52.486;13.374;2023-09-08T11:27:12;31.40;36.70
3356;DHT22;1691;52.486;13.374;2023-09-08T11:29:39;31.10;37.00
3356;DHT22;1691;52.486;13.374;2023-09-08T11:32:09;30.90;37.50
3356;DHT22;1691;52.486;13.374;2023-09-08T11:34:37;30.60;38.10
3356;DHT22;1691;52.486;13.374;2023-09-08T11:37:11;30.30;38.50
3356;DHT22;1691;52.486;13.374;2023-09-08T11:39:44;30.10;39.20
3356;DHT22;1691;52.486;13.374;2023-09-08T11:42:13;29.90;39.50
3356;DHT22;1691;52.486;13.374;2023-09-08T11:44:42;29.80;39.60
3356;DHT22;1691;52.486;13.374;2023-09-08T11:47:10;29.60;39.80
3356;DHT22;1691;52.486;13.374;2023-09-08T11:49:40;29.40;40.20
3356;DHT22;1691;52.486;13.374;2023-09-08T11:52:07;29.40;40.40
3356;DHT22;1691;52.486;13.374;2023-09-08T11:54:36;29.40;40.40
3356;DHT22;1691;52.486;13.374;2023-09-08T11:57:21;29.30;40.40
3356;DHT22;1691;52.486;13.374;2023-09-08T11:59:48;29.30;40.50
3356;DHT22;1691;52.486;13.374;2023-09-08T12:02:16;29.20;40.90
3356;DHT22;1691;52.486;13.374;2023-09-08T12:04:45;29.20;40.90
3356;DHT22;1691;52.486;13.374;2023-09-08T12:07:12;29.30;40.90
3356;DHT22;1691;52.486;13.374;2023-09-08T12:09:43;29.30;40.90
3356;DHT22;1691;52.486;13.374;2023-09-08T12:12:13;29.20;40.90
3356;DHT22;1691;52.486;13.374;2023-09-08T12:14:41;29.20;40.90
3356;DHT22;1691;52.486;13.374;2023-09-08T12:17:12;29.20;41.00
3356;DHT22;1691;52.486;13.374;2023-09-08T12:19:43;29.20;40.90
3356;DHT22;1691;52.486;13.374;2023-09-08T12:22:10;29.10;40.50
3356;DHT22;1691;52.486;13.374;2023-09-08T12:24:58;29.10;40.40
3356;DHT22;1691;52.486;13.374;2023-09-08T12:27:26;29.00;40.20
3356;DHT22;1691;52.486;13.374;2023-09-08T12:29:57;29.00;40.20
3356;DHT22;1691;52.486;13.374;2023-09-08T12:32:26;29.00;40.10
3356;DHT22;1691;52.486;13.374;2023-09-08T12:34:56;29.00;40.10
3356;DHT22;1691;52.486;13.374;2023-09-08T12:37:24;29.00;40.10
3356;DHT22;1691;52.486;13.374;2023-09-08T12:39:51;29.00;40.50
3356;DHT22;1691;52.486;13.374;2023-09-08T12:42:19;29.00;40.90
3356;DHT22;1691;52.486;13.374;2023-09-08T12:44:47;28.90;41.30
3356;DHT22;1691;52.486;13.374;2023-09-08T12:47:14;28.90;41.60
3356;DHT22;1691;52.486;13.374;2023-09-08T12:49:41;29.00;41.90
3356;DHT22;1691;52.486;13.374;2023-09-08T12:52:08;28.90;41.90
3356;DHT22;1691;52.486;13.374;2023-09-08T12:54:36;28.90;41.90
3356;DHT22;1691;52.486;13.374;2023-09-08T12:57:03;28.90;42.10
3356;DHT22;1691;52.486;13.374;2023-09-08T12:59:32;29.00;42.10
3356;DHT22;1691;52.486;13.374;2023-09-08T13:01:59;28.90;42.10
3356;DHT22;1691;52.486;13.374;2023-09-08T13:04:27;29.00;42.10
3356;DHT22;1691;52.486;13.374;2023-09-08T13:06:54;29.00;41.80
3356;DHT22;1691;52.486;13.374;2023-09-08T13:09:22;29.00;41.80
3356;DHT22;1691;52.486;13.374;2023-09-08T13:11:49;29.00;41.60
3356;DHT22;1691;52.486;13.374;2023-09-08T13:14:18;29.00;41.30
3356;DHT22;1691;52.486;13.374;2023-09-08T13:16:45;29.00;41.20
3356;DHT22;1691;52.486;13.374;2023-09-08T13:19:12;29.00;41.20
3356;DHT22;1691;52.486;13.374;2023-09-08T13:21:39;29.00;41.20
3356;DHT22;1691;52.486;13.374;2023-09-08T13:24:07;29.00;41.00
3356;DHT22;1691;52.486;13.374;2023-09-08T13:26:34;29.00;41.20
3356;DHT22;1691;52.486;13.374;2023-09-08T13:29:01;29.00;41.20
3356;DHT22;1691;52.486;13.374;2023-09-08T13:31:29;29.10;41.20
3356;DHT22;1691;52.486;13.374;2023-09-08T13:33:56;29.20;41.00
3356;DHT22;1691;52.486;13.374;2023-09-08T13:36:23;29.20;40.90
3356;DHT22;1691;52.486;13.374;2023-09-08T13:38:50;29.20;40.70
3356;DHT22;1691;52.486;13.374;2023-09-08T13:41:17;29.10;40.70
3356;DHT22;1691;52.486;13.374;2023-09-08T13:43:44;29.10;40.40
3356;DHT22;1691;52.486;13.374;2023-09-08T13:46:13;29.10;40.20
3356;DHT22;1691;52.486;13.374;2023-09-08T13:48:40;29.10;40.10
3356;DHT22;1691;52.486;13.374;2023-09-08T13:51:09;29.20;40.10
3356;DHT22;1691;52.486;13.374;2023-09-08T13:53:36;29.20;40.10
3356;DHT22;1691;52.486;13.374;2023-09-08T13:56:12;29.30;39.90
3356;DHT22;1691;52.486;13.374;2023-09-08T13:58:41;29.30;39.90
3356;DHT22;1691;52.486;13.374;2023-09-08T14:01:14;29.30;40.10
3356;DHT22;1691;52.486;13.374;2023-09-08T14:03:44;29.30;40.20
3356;DHT22;1691;52.486;13.374;2023-09-08T14:06:29;29.30;40.20
3356;DHT22;1691;52.486;13.374;2023-09-08T14:09:05;29.30;40.20
3356;DHT22;1691;52.486;13.374;2023-09-08T14:11:35;29.30;40.20
3356;DHT22;1691;52.486;13.374;2023-09-08T14:14:06;29.30;39.90
3356;DHT22;1691;52.486;13.374;2023-09-08T14:16:34;29.30;39.80
3356;DHT22;1691;52.486;13.374;2023-09-08T14:19:02;29.30;39.60
3356;DHT22;1691;52.486;13.374;2023-09-08T14:21:30;29.30;39.30
3356;DHT22;1691;52.486;13.374;2023-09-08T14:23:58;29.30;39.30
3356;DHT22;1691;52.486;13.374;2023-09-08T14:26:25;29.30;39.00
3356;DHT22;1691;52.486;13.374;2023-09-08T14:28:52;29.30;39.00
3356;DHT22;1691;52.486;13.374;2023-09-08T14:31:20;29.30;39.00
3356;DHT22;1691;52.486;13.374;2023-09-08T14:33:47;29.30;39.20
3356;DHT22;1691;52.486;13.374;2023-09-08T14:36:20;29.30;39.20
3356;DHT22;1691;52.486;13.374;2023-09-08T14:38:48;29.30;39.00
3356;DHT22;1691;52.486;13.374;2023-09-08T14:41:15;29.30;39.00
3356;DHT22;1691;52.486;13.374;2023-09-08T14:43:42;29.30;38.90
3356;DHT22;1691;52.486;13.374;2023-09-08T14:46:09;29.30;38.50
3356;DHT22;1691;52.486;13.374;2023-09-08T14:48:36;29.30;38.50
3356;DHT22;1691;52.486;13.374;2023-09-08T14:51:03;29.30;38.50
3356;DHT22;1691;52.486;13.374;2023-09-08T14:53:30;29.30;38.50
3356;DHT22;1691;52.486;13.374;2023-09-08T14:55:58;29.30;38.50
3356;DHT22;1691;52.486;13.374;2023-09-08T14:58:25;29.30;38.70
3356;DHT22;1691;52.486;13.374;2023-09-08T15:00:58;29.20;38.90
3356;DHT22;1691;52.486;13.374;2023-09-08T15:03:31;29.30;39.00
3356;DHT22;1691;52.486;13.374;2023-09-08T15:05:59;29.30;38.90
3356;DHT22;1691;52.486;13.374;2023-09-08T15:08:27;29.30;38.70
3356;DHT22;1691;52.486;13.374;2023-09-08T15:10:54;29.20;38.50
3356;DHT22;1691;52.486;13.374;2023-09-08T15:13:22;29.20;38.40
3356;DHT22;1691;52.486;13.374;2023-09-08T15:15:58;29.20;38.50
3356;DHT22;1691;52.486;13.374;2023-09-08T15:18:26;29.10;38.50
3356;DHT22;1691;52.486;13.374;2023-09-08T15:20:55;29.10;38.70
3356;DHT22;1691;52.486;13.374;2023-09-08T15:23:23;29.10;38.50
3356;DHT22;1691;52.486;13.374;2023-09-08T15:25:59;29.10;38.40
3356;DHT22;1691;52.486;13.374;2023-09-08T15:28:26;29.10;38.20
3356;DHT22;1691;52.486;13.374;2023-09-08T15:30:54;29.00;38.10
3356;DHT22;1691;52.486;13.374;2023-09-08T15:33:22;29.00;38.10
3356;DHT22;1691;52.486;13.374;2023-09-08T15:35:53;29.00;38.20
3356;DHT22;1691;52.486;13.374;2023-09-08T15:38:23;29.00;38.50
3356;DHT22;1691;52.486;13.374;2023-09-08T15:43:48;29.00;39.00
3356;DHT22;1691;52.486;13.374;2023-09-08T15:46:18;28.90;39.20
3356;DHT22;1691;52.486;13.374;2023-09-08T15:48:45;28.90;39.30
3356;DHT22;1691;52.486;13.374;2023-09-08T15:51:13;28.80;39.30
3356;DHT22;1691;52.486;13.374;2023-09-08T15:53:40;28.80;39.50
3356;DHT22;1691;52.486;13.374;2023-09-08T15:56:09;28.80;39.50
3356;DHT22;1691;52.486;13.374;2023-09-08T15:58:37;28.80;39.30
3356;DHT22;1691;52.486;13.374;2023-09-08T16:01:04;28.70;39.60